Time;durP1;ratioP1;P1;durP2;ratioP2;P2;SDS_P1;SDS_P2;PMS_P1;PMS_P2;Temp;Humidity;BMP_temperature;BMP_pressure;BME280_temperature;BME280_humidity;BME280_pressure;Samples;Min_cycle;Max_cycle;Signal;HPM_P1;HPM_P2
2022/08/20 00:02:12;;;;;;;;;;;22.80;99.90;;;;;;5016207;28;20178;-74
2022/08/20 00:04:40;;;;;;;;;;;22.80;99.90;;;;;;5007694;28;25066;-71
2022/08/20 00:07:07;;;;;;;;;;;22.80;99.90;;;;;;5012965;28;20612;-72
2022/08/20 00:09:35;;;;;;;;;;;22.90;99.90;;;;;;5011229;28;20256;-72
2022/08/20 00:12:04;;;;;;;;;;;22.80;99.90;;;;;;5013094;28;20179;-71
2022/08/20 00:14:31;;;;;;;;;;;22.70;99.90;;;;;;5015659;28;20096;-71
2022/08/20 00:17:03;;;;;;;;;;;22.80;99.90;;;;;;5010092;28;20301;-71
2022/08/20 00:19:30;;;;;;;;;;;22.70;99.90;;;;;;5000680;28;20187;-69
2022/08/20 00:21:58;;;;;;;;;;;22.60;99.90;;;;;;5013880;28;20242;-71
2022/08/20 00:24:26;;;;;;;;;;;22.60;99.90;;;;;;5011655;28;20203;-72
2022/08/20 00:26:54;;;;;;;;;;;22.80;99.90;;;;;;5009203;28;20203;-72
2022/08/20 00:29:21;;;;;;;;;;;22.70;99.90;;;;;;5011332;28;20211;-72
2022/08/20 00:31:49;;;;;;;;;;;22.80;99.90;;;;;;5014852;28;20195;-71
2022/08/20 00:34:19;;;;;;;;;;;22.70;99.90;;;;;;5012780;28;20255;-72
2022/08/20 00:36:47;;;;;;;;;;;22.80;99.90;;;;;;5012121;28;20204;-74
2022/08/20 00:39:14;;;;;;;;;;;22.70;99.90;;;;;;5012929;28;20233;-73
2022/08/20 00:41:42;;;;;;;;;;;22.70;99.90;;;;;;5016701;28;20280;-73
2022/08/20 00:44:11;;;;;;;;;;;22.80;99.90;;;;;;5011642;28;20208;-72
2022/08/20 00:46:39;;;;;;;;;;;23.10;99.90;;;;;;5011844;28;20256;-72
2022/08/20 00:49:17;;;;;;;;;;;23.10;99.90;;;;;;5009318;28;20203;-73
2022/08/20 00:51:48;;;;;;;;;;;23.10;99.90;;;;;;5011615;28;20195;-74
2022/08/20 00:54:17;;;;;;;;;;;23.10;99.90;;;;;;5011846;28;20779;-75
2022/08/20 00:56:47;;;;;;;;;;;23.10;99.90;;;;;;5008820;28;20216;-72
2022/08/20 00:59:16;;;;;;;;;;;23.10;99.90;;;;;;5011641;28;20095;-72
2022/08/20 01:01:44;;;;;;;;;;;23.10;99.90;;;;;;5011307;28;20316;-74
2022/08/20 01:04:25;;;;;;;;;;;23.00;99.90;;;;;;5011409;28;20273;-72
2022/08/20 01:06:54;;;;;;;;;;;22.90;99.90;;;;;;5012621;28;20274;-73
2022/08/20 01:09:22;;;;;;;;;;;23.10;99.90;;;;;;5010009;28;20625;-73
2022/08/20 01:12:10;;;;;;;;;;;23.10;99.90;;;;;;5010133;28;20312;-72
2022/08/20 01:14:43;;;;;;;;;;;23.10;99.90;;;;;;5008487;28;20907;-73
2022/08/20 01:17:14;;;;;;;;;;;23.00;99.90;;;;;;5009763;28;20872;-73
2022/08/20 01:19:44;;;;;;;;;;;22.90;99.90;;;;;;5008887;28;19971;-72
2022/08/20 01:25:04;;;;;;;;;;;22.80;99.90;;;;;;5010795;28;20087;-71
2022/08/20 01:27:33;;;;;;;;;;;22.80;99.90;;;;;;5010646;28;20054;-72
2022/08/20 01:30:09;;;;;;;;;;;22.70;99.90;;;;;;5011314;28;20678;-72
2022/08/20 01:32:37;;;;;;;;;;;22.70;99.90;;;;;;5009545;28;25146;-72
2022/08/20 01:35:05;;;;;;;;;;;22.60;99.90;;;;;;5010037;28;20284;-72
2022/08/20 01:37:33;;;;;;;;;;;22.60;99.90;;;;;;5009898;28;20630;-72
2022/08/20 01:40:02;;;;;;;;;;;22.60;99.90;;;;;;5008399;28;20108;-71
2022/08/20 01:42:38;;;;;;;;;;;22.50;99.90;;;;;;5011372;28;20814;-72
2022/08/20 01:45:26;;;;;;;;;;;22.70;99.90;;;;;;5013927;28;25091;-71
2022/08/20 01:47:57;;;;;;;;;;;22.60;99.90;;;;;;5010902;28;20143;-71
2022/08/20 01:50:27;;;;;;;;;;;22.60;99.90;;;;;;5010399;28;20347;-71
2022/08/20 01:52:57;;;;;;;;;;;22.50;99.90;;;;;;5020922;28;20614;-71
2022/08/20 01:55:26;;;;;;;;;;;22.10;99.90;;;;;;5008282;28;20131;-72
2022/08/20 01:57:55;;;;;;;;;;;22.30;99.90;;;;;;5009911;28;21036;-72
2022/08/20 02:00:24;;;;;;;;;;;22.30;99.90;;;;;;5010811;28;20065;-72
2022/08/20 02:02:51;;;;;;;;;;;22.50;99.90;;;;;;5006755;28;20463;-72
2022/08/20 02:05:19;;;;;;;;;;;22.30;99.90;;;;;;5008259;28;20328;-71
2022/08/20 02:07:47;;;;;;;;;;;22.20;99.90;;;;;;5010915;28;20710;-71
2022/08/20 02:10:16;;;;;;;;;;;22.10;99.90;;;;;;5015785;28;20424;-72
2022/08/20 02:12:44;;;;;;;;;;;22.00;99.90;;;;;;5009184;28;20729;-70
2022/08/20 02:15:13;;;;;;;;;;;22.00;99.90;;;;;;5008902;28;20271;-72
2022/08/20 02:17:43;;;;;;;;;;;22.00;99.90;;;;;;5010748;28;20686;-72
2022/08/20 02:20:13;;;;;;;;;;;21.90;99.90;;;;;;5012504;28;21239;-72
2022/08/20 02:22:43;;;;;;;;;;;21.80;99.90;;;;;;5010635;28;20280;-72
2022/08/20 02:25:17;;;;;;;;;;;21.80;99.90;;;;;;5009093;28;20268;-71
2022/08/20 02:27:47;;;;;;;;;;;22.00;99.90;;;;;;5010960;28;20960;-71
2022/08/20 02:30:18;;;;;;;;;;;21.90;99.90;;;;;;5008714;28;21309;-71
2022/08/20 02:32:55;;;;;;;;;;;22.00;99.90;;;;;;5010339;28;21008;-71
2022/08/20 02:35:23;;;;;;;;;;;21.90;99.90;;;;;;5007518;28;25096;-71
2022/08/20 02:37:51;;;;;;;;;;;22.00;99.90;;;;;;5006888;28;20414;-71
2022/08/20 02:40:19;;;;;;;;;;;22.30;99.90;;;;;;5007922;28;20119;-72
2022/08/20 02:42:57;;;;;;;;;;;22.50;99.90;;;;;;5005915;28;25092;-71
2022/08/20 02:45:27;;;;;;;;;;;22.70;99.90;;;;;;5007928;28;20218;-71
2022/08/20 02:47:56;;;;;;;;;;;23.00;99.90;;;;;;5009264;28;20107;-71
2022/08/20 02:50:25;;;;;;;;;;;23.10;99.90;;;;;;5005092;28;20651;-73
2022/08/20 02:52:52;;;;;;;;;;;23.30;99.90;;;;;;5009137;28;25066;-72
2022/08/20 02:55:21;;;;;;;;;;;23.20;99.90;;;;;;5007982;28;20158;-71
2022/08/20 02:57:54;;;;;;;;;;;23.00;99.90;;;;;;5005092;28;20534;-71
2022/08/20 03:00:27;;;;;;;;;;;22.90;99.90;;;;;;5007460;28;21060;-72
2022/08/20 03:02:59;;;;;;;;;;;22.70;99.90;;;;;;5008001;28;20754;-72
2022/08/20 03:05:27;;;;;;;;;;;22.50;99.90;;;;;;5006757;28;20748;-72
2022/08/20 03:07:55;;;;;;;;;;;22.50;99.90;;;;;;5009827;28;25142;-72
2022/08/20 03:10:24;;;;;;;;;;;22.50;99.90;;;;;;5006228;28;20187;-72
2022/08/20 03:12:52;;;;;;;;;;;22.50;99.90;;;;;;5008740;28;20252;-72
2022/08/20 03:15:20;;;;;;;;;;;22.40;99.90;;;;;;5008933;28;20375;-71
2022/08/20 03:17:49;;;;;;;;;;;22.30;99.90;;;;;;5010113;28;20880;-72
2022/08/20 03:20:17;;;;;;;;;;;22.40;99.90;;;;;;5011708;28;20354;-72
2022/08/20 03:22:50;;;;;;;;;;;22.50;99.90;;;;;;5009256;28;20140;-72
2022/08/20 03:25:18;;;;;;;;;;;22.50;99.90;;;;;;5007444;28;25110;-73
2022/08/20 03:27:46;;;;;;;;;;;22.50;99.90;;;;;;5046394;22;20837;-64
2022/08/20 03:30:23;;;;;;;;;;;22.50;99.90;;;;;;5045430;28;20122;-64
2022/08/20 03:32:53;;;;;;;;;;;22.60;99.90;;;;;;5045688;28;20215;-64
2022/08/20 03:35:22;;;;;;;;;;;22.70;99.90;;;;;;5046956;28;26129;-64
2022/08/20 03:37:49;;;;;;;;;;;22.80;99.90;;;;;;5046199;28;20563;-64
2022/08/20 03:40:19;;;;;;;;;;;22.70;99.90;;;;;;5043417;28;21193;-64
2022/08/20 03:42:47;;;;;;;;;;;22.80;99.90;;;;;;5044188;28;25083;-64
2022/08/20 03:45:15;;;;;;;;;;;22.80;99.90;;;;;;5046204;28;20103;-64
2022/08/20 03:47:47;;;;;;;;;;;23.00;99.90;;;;;;5045451;28;25143;-65
2022/08/20 03:50:17;;;;;;;;;;;22.90;99.90;;;;;;5045945;28;20272;-65
2022/08/20 03:52:50;;;;;;;;;;;22.90;99.90;;;;;;5044479;28;20130;-63
2022/08/20 03:55:18;;;;;;;;;;;22.70;99.90;;;;;;5047537;28;20222;-64
2022/08/20 03:57:47;;;;;;;;;;;22.40;99.90;;;;;;5046883;28;20677;-65
2022/08/20 04:00:16;;;;;;;;;;;22.30;99.90;;;;;;5049477;28;20272;-65
2022/08/20 04:02:43;;;;;;;;;;;22.00;99.90;;;;;;5051043;28;20210;-63
2022/08/20 04:05:11;;;;;;;;;;;21.90;99.90;;;;;;5051124;28;20381;-64
2022/08/20 04:07:40;;;;;;;;;;;21.90;99.90;;;;;;5051469;28;20209;-64
2022/08/20 04:10:09;;;;;;;;;;;21.70;99.90;;;;;;5043028;28;20138;-66
2022/08/20 04:12:39;;;;;;;;;;;21.60;99.90;;;;;;5042107;28;20223;-64
2022/08/20 04:15:16;;;;;;;;;;;21.50;99.90;;;;;;5041435;28;20685;-64
2022/08/20 04:17:46;;;;;;;;;;;21.40;99.90;;;;;;5038677;28;20202;-66
2022/08/20 04:20:15;;;;;;;;;;;21.30;99.90;;;;;;5036208;28;20934;-64
2022/08/20 04:22:45;;;;;;;;;;;21.40;99.90;;;;;;5038133;28;20222;-64
2022/08/20 04:25:27;;;;;;;;;;;21.40;99.90;;;;;;5035312;28;20564;-64
2022/08/20 04:27:56;;;;;;;;;;;21.30;99.90;;;;;;5036905;28;20227;-64
2022/08/20 04:30:25;;;;;;;;;;;21.30;99.90;;;;;;5034585;28;20126;-64
2022/08/20 04:32:53;;;;;;;;;;;21.40;99.90;;;;;;5037026;28;20564;-65
2022/08/20 04:35:23;;;;;;;;;;;21.30;99.90;;;;;;5033209;28;20207;-64
2022/08/20 04:37:59;;;;;;;;;;;21.40;99.90;;;;;;5038594;28;20564;-64
2022/08/20 04:43:13;;;;;;;;;;;21.30;99.90;;;;;;5036094;28;20252;-66
2022/08/20 04:45:41;;;;;;;;;;;21.20;99.90;;;;;;5037546;28;20216;-66
2022/08/20 04:48:09;;;;;;;;;;;21.20;99.90;;;;;;5040325;28;21076;-64
2022/08/20 04:50:42;;;;;;;;;;;21.30;99.90;;;;;;5039974;28;20090;-64
2022/08/20 04:53:12;;;;;;;;;;;21.40;99.90;;;;;;5040172;28;20130;-64
2022/08/20 04:55:41;;;;;;;;;;;21.40;99.90;;;;;;5039585;28;20297;-66
2022/08/20 04:58:11;;;;;;;;;;;21.50;99.90;;;;;;5041929;28;20223;-64
2022/08/20 05:00:38;;;;;;;;;;;21.70;99.90;;;;;;5039114;28;20152;-64
2022/08/20 05:03:06;;;;;;;;;;;22.10;99.90;;;;;;5038912;28;20118;-66
2022/08/20 05:05:34;;;;;;;;;;;22.20;99.90;;;;;;5039057;28;20084;-64
2022/08/20 05:08:02;;;;;;;;;;;22.10;99.90;;;;;;5040839;28;20243;-64
2022/08/20 05:10:31;;;;;;;;;;;22.20;99.90;;;;;;5036857;28;20257;-64
2022/08/20 05:12:59;;;;;;;;;;;22.10;99.90;;;;;;5041004;28;20443;-64
2022/08/20 05:15:27;;;;;;;;;;;22.00;99.90;;;;;;5035950;28;25156;-64
2022/08/20 05:17:56;;;;;;;;;;;22.10;99.90;;;;;;5039821;28;20153;-65
2022/08/20 05:20:24;;;;;;;;;;;22.10;99.90;;;;;;5038274;28;20299;-64
2022/08/20 05:22:55;;;;;;;;;;;22.00;99.90;;;;;;5039950;28;20567;-65
2022/08/20 05:25:23;;;;;;;;;;;21.90;99.90;;;;;;5036500;28;20140;-66
2022/08/20 05:27:57;;;;;;;;;;;22.00;99.90;;;;;;5038855;28;25071;-65
2022/08/20 05:30:25;;;;;;;;;;;22.00;99.90;;;;;;5038278;28;20220;-66
2022/08/20 05:32:52;;;;;;;;;;;22.00;99.90;;;;;;5039286;28;20193;-64
2022/08/20 05:35:21;;;;;;;;;;;22.10;99.90;;;;;;5036365;28;20230;-64
2022/08/20 05:37:48;;;;;;;;;;;22.10;99.90;;;;;;5041288;28;20336;-65
2022/08/20 05:40:16;;;;;;;;;;;22.20;99.90;;;;;;5038377;28;20158;-65
2022/08/20 05:42:44;;;;;;;;;;;22.20;99.90;;;;;;5039334;28;25120;-66
2022/08/20 05:45:15;;;;;;;;;;;22.40;99.90;;;;;;5035134;28;20144;-64
2022/08/20 05:47:43;;;;;;;;;;;22.40;99.90;;;;;;5039814;28;20741;-65
2022/08/20 05:50:12;;;;;;;;;;;22.50;99.90;;;;;;5039574;28;20393;-65
2022/08/20 05:52:50;;;;;;;;;;;22.50;99.90;;;;;;5038266;28;25076;-65
2022/08/20 05:55:18;;;;;;;;;;;22.50;99.90;;;;;;5035602;28;20216;-65
2022/08/20 05:57:45;;;;;;;;;;;22.40;99.90;;;;;;5038296;28;20089;-64
2022/08/20 06:00:15;;;;;;;;;;;22.20;99.90;;;;;;5040185;28;20110;-64
2022/08/20 06:05:28;;;;;;;;;;;22.10;99.90;;;;;;5038050;28;20228;-64
2022/08/20 06:07:56;;;;;;;;;;;22.10;99.90;;;;;;5040963;28;20706;-64
2022/08/20 06:10:33;;;;;;;;;;;22.20;99.90;;;;;;5038629;28;21297;-65
2022/08/20 06:13:02;;;;;;;;;;;22.00;99.90;;;;;;5038535;28;20720;-65
2022/08/20 06:15:32;;;;;;;;;;;22.00;99.90;;;;;;5038217;28;20199;-64
2022/08/20 06:18:06;;;;;;;;;;;21.90;99.90;;;;;;5042823;28;20984;-64
2022/08/20 06:20:54;;;;;;;;;;;21.90;99.90;;;;;;5039238;28;20130;-66
2022/08/20 06:23:24;;;;;;;;;;;22.00;99.90;;;;;;5040087;28;20164;-66
2022/08/20 06:25:52;;;;;;;;;;;22.20;99.90;;;;;;5035087;28;20746;-65
2022/08/20 06:28:19;;;;;;;;;;;22.10;99.90;;;;;;5039582;28;20269;-66
2022/08/20 06:30:49;;;;;;;;;;;22.00;99.90;;;;;;5034558;28;21217;-65
2022/08/20 06:33:16;;;;;;;;;;;22.10;99.90;;;;;;5035699;28;21038;-64
2022/08/20 06:35:44;;;;;;;;;;;22.10;99.90;;;;;;5037946;28;25081;-66
2022/08/20 06:38:13;;;;;;;;;;;22.30;99.90;;;;;;5040070;28;20112;-66
2022/08/20 06:40:41;;;;;;;;;;;22.60;99.90;;;;;;5038559;28;20261;-64
2022/08/20 06:43:09;;;;;;;;;;;22.60;99.90;;;;;;5037680;28;20211;-67
2022/08/20 06:45:37;;;;;;;;;;;22.50;99.90;;;;;;5038114;28;20206;-64
2022/08/20 06:48:07;;;;;;;;;;;22.50;99.90;;;;;;5040880;28;20219;-65
2022/08/20 06:50:38;;;;;;;;;;;22.60;99.90;;;;;;5036906;28;20099;-65
2022/08/20 06:53:15;;;;;;;;;;;22.50;99.90;;;;;;5038965;28;20217;-65
2022/08/20 06:55:45;;;;;;;;;;;22.40;99.90;;;;;;5037081;28;20280;-64
2022/08/20 06:58:15;;;;;;;;;;;22.30;99.90;;;;;;5039210;28;21054;-65
2022/08/20 07:01:03;;;;;;;;;;;22.40;99.90;;;;;;5040134;28;20259;-64
2022/08/20 07:03:39;;;;;;;;;;;22.30;99.90;;;;;;5038538;28;20919;-65
2022/08/20 07:06:22;;;;;;;;;;;22.50;99.90;;;;;;5037816;28;20756;-64
2022/08/20 07:08:50;;;;;;;;;;;22.50;99.90;;;;;;5039725;28;20083;-65
2022/08/20 07:11:19;;;;;;;;;;;22.60;99.90;;;;;;5036147;28;20223;-65
2022/08/20 07:13:55;;;;;;;;;;;22.70;99.90;;;;;;5037345;28;20201;-64
2022/08/20 07:16:23;;;;;;;;;;;22.60;99.90;;;;;;5037010;28;20310;-64
2022/08/20 07:18:52;;;;;;;;;;;22.80;99.90;;;;;;5038182;28;20437;-64
2022/08/20 07:21:20;;;;;;;;;;;22.90;99.90;;;;;;5037922;28;20222;-65
2022/08/20 07:23:48;;;;;;;;;;;22.80;99.90;;;;;;5038844;28;20225;-64
2022/08/20 07:26:16;;;;;;;;;;;22.80;99.90;;;;;;5037951;28;20134;-65
2022/08/20 07:28:45;;;;;;;;;;;23.10;99.90;;;;;;5040136;28;20255;-65
2022/08/20 07:34:03;;;;;;;;;;;23.50;99.90;;;;;;5038000;28;20098;-65
2022/08/20 07:36:31;;;;;;;;;;;23.60;99.90;;;;;;5038444;28;25150;-65
2022/08/20 07:39:00;;;;;;;;;;;23.70;99.90;;;;;;5036988;28;20093;-65
2022/08/20 07:41:33;;;;;;;;;;;23.70;99.90;;;;;;5036658;28;20775;-66
2022/08/20 07:44:03;;;;;;;;;;;23.90;99.90;;;;;;5039757;28;20214;-66
2022/08/20 07:46:31;;;;;;;;;;;23.70;99.90;;;;;;5037600;28;20774;-64
2022/08/20 07:48:59;;;;;;;;;;;23.80;99.90;;;;;;5038853;28;20707;-65
2022/08/20 07:51:28;;;;;;;;;;;24.00;99.90;;;;;;5040805;28;20263;-64
2022/08/20 07:53:57;;;;;;;;;;;24.10;99.90;;;;;;5040744;28;20210;-65
2022/08/20 07:56:25;;;;;;;;;;;24.10;99.90;;;;;;5042466;28;20194;-65
2022/08/20 07:58:57;;;;;;;;;;;24.30;99.90;;;;;;5039058;28;20213;-64
2022/08/20 08:01:28;;;;;;;;;;;24.20;99.90;;;;;;5036459;28;20137;-66
2022/08/20 08:03:56;;;;;;;;;;;24.20;99.90;;;;;;5035048;28;20195;-64
2022/08/20 08:06:24;;;;;;;;;;;24.20;99.90;;;;;;5034605;28;20503;-66
2022/08/20 08:09:01;;;;;;;;;;;24.20;99.90;;;;;;5040694;28;20257;-64
2022/08/20 08:11:30;;;;;;;;;;;24.20;99.90;;;;;;5035823;28;20126;-65
2022/08/20 08:13:59;;;;;;;;;;;24.20;99.90;;;;;;5035434;28;20123;-64
2022/08/20 08:16:27;;;;;;;;;;;24.20;99.90;;;;;;5036232;28;20108;-64
2022/08/20 08:18:57;;;;;;;;;;;24.60;99.90;;;;;;5039360;28;20208;-64
2022/08/20 08:21:25;;;;;;;;;;;24.70;99.90;;;;;;5037983;28;20220;-64
2022/08/20 08:23:52;;;;;;;;;;;25.10;99.90;;;;;;5038456;28;20207;-66
2022/08/20 08:26:21;;;;;;;;;;;25.50;99.90;;;;;;5039108;28;20205;-66
2022/08/20 08:28:50;;;;;;;;;;;25.80;99.90;;;;;;5040877;28;20301;-64
2022/08/20 08:31:17;;;;;;;;;;;26.00;99.90;;;;;;5039132;28;20595;-66
2022/08/20 08:33:46;;;;;;;;;;;26.10;99.90;;;;;;5040730;28;20689;-65
2022/08/20 08:36:15;;;;;;;;;;;26.10;99.90;;;;;;5041182;28;20206;-64
2022/08/20 08:38:44;;;;;;;;;;;26.00;99.90;;;;;;5042734;28;20678;-64
2022/08/20 08:41:15;;;;;;;;;;;26.00;99.90;;;;;;5039602;28;20202;-64
2022/08/20 08:43:46;;;;;;;;;;;25.80;99.90;;;;;;5040505;28;20213;-64
2022/08/20 08:46:17;;;;;;;;;;;25.60;99.90;;;;;;5039134;28;20209;-64
2022/08/20 08:48:46;;;;;;;;;;;25.40;99.90;;;;;;5043269;28;20294;-66
2022/08/20 08:51:16;;;;;;;;;;;25.40;99.90;;;;;;5038894;28;20211;-64
2022/08/20 08:53:47;;;;;;;;;;;25.40;99.90;;;;;;5039310;28;20218;-64
2022/08/20 08:56:15;;;;;;;;;;;25.50;99.90;;;;;;5039625;28;20264;-65
2022/08/20 08:58:43;;;;;;;;;;;25.40;99.90;;;;;;5042343;28;20931;-64
2022/08/20 09:01:14;;;;;;;;;;;25.50;99.90;;;;;;5041252;28;20792;-65
2022/08/20 09:04:03;;;;;;;;;;;25.70;99.90;;;;;;5042241;28;20216;-64
2022/08/20 09:06:32;;;;;;;;;;;26.00;99.90;;;;;;5041159;28;20220;-64
2022/08/20 09:09:01;;;;;;;;;;;25.90;99.90;;;;;;5040164;28;20214;-64
2022/08/20 09:11:29;;;;;;;;;;;25.90;99.90;;;;;;5037367;28;20708;-64
2022/08/20 09:13:57;;;;;;;;;;;26.00;99.90;;;;;;5036875;28;20216;-64
2022/08/20 09:16:27;;;;;;;;;;;26.20;99.90;;;;;;5040111;28;20232;-64
2022/08/20 09:19:15;;;;;;;;;;;26.50;99.90;;;;;;5042382;28;20295;-65
2022/08/20 09:21:43;;;;;;;;;;;26.70;99.90;;;;;;5041636;28;20198;-64
2022/08/20 09:24:10;;;;;;;;;;;27.20;99.90;;;;;;5039909;28;20206;-64
2022/08/20 09:26:38;;;;;;;;;;;27.40;99.90;;;;;;5037608;28;20248;-64
2022/08/20 09:29:06;;;;;;;;;;;27.40;99.90;;;;;;5040747;28;20234;-65
2022/08/20 09:31:35;;;;;;;;;;;27.50;99.90;;;;;;5038952;28;20194;-64
2022/08/20 09:34:04;;;;;;;;;;;27.60;99.90;;;;;;5040820;28;20213;-65
2022/08/20 09:36:34;;;;;;;;;;;27.70;99.90;;;;;;5040898;28;20202;-64
2022/08/20 09:39:01;;;;;;;;;;;27.70;99.90;;;;;;5041799;28;20806;-64
2022/08/20 09:41:30;;;;;;;;;;;27.60;99.90;;;;;;5038867;28;20210;-64
2022/08/20 09:44:01;;;;;;;;;;;27.70;99.90;;;;;;5038014;28;20295;-64
2022/08/20 09:46:29;;;;;;;;;;;27.70;99.90;;;;;;5037957;28;20207;-66
2022/08/20 09:48:58;;;;;;;;;;;27.50;99.90;;;;;;5042613;28;20214;-65
2022/08/20 09:51:25;;;;;;;;;;;27.70;99.90;;;;;;5036759;28;20228;-64
2022/08/20 09:53:54;;;;;;;;;;;27.80;99.90;;;;;;5037297;28;20202;-64
2022/08/20 09:56:24;;;;;;;;;;;27.60;99.90;;;;;;5039082;28;20235;-63
2022/08/20 09:58:53;;;;;;;;;;;27.30;99.90;;;;;;5037625;28;20194;-64
2022/08/20 10:01:21;;;;;;;;;;;27.40;99.90;;;;;;5037045;28;20256;-64
2022/08/20 10:03:50;;;;;;;;;;;27.40;99.90;;;;;;5038758;28;20197;-66
2022/08/20 10:06:19;;;;;;;;;;;27.30;99.90;;;;;;5041189;28;20597;-66
2022/08/20 10:08:47;;;;;;;;;;;27.30;99.90;;;;;;5042573;28;20202;-69
2022/08/20 10:11:15;;;;;;;;;;;27.40;99.90;;;;;;5034070;28;20194;-69
2022/08/20 10:13:44;;;;;;;;;;;28.00;99.90;;;;;;5037072;28;20207;-65
2022/08/20 10:16:12;;;;;;;;;;;28.70;99.90;;;;;;5040666;28;20199;-69
2022/08/20 10:18:40;;;;;;;;;;;29.10;99.90;;;;;;5044166;28;20210;-68
2022/08/20 10:21:09;;;;;;;;;;;29.40;99.90;;;;;;5043069;28;20202;-68
2022/08/20 10:23:38;;;;;;;;;;;29.60;99.90;;;;;;5042148;28;20267;-65
2022/08/20 10:26:06;;;;;;;;;;;29.40;99.90;;;;;;5044675;28;20249;-65
2022/08/20 10:28:34;;;;;;;;;;;29.30;99.90;;;;;;5047320;28;20255;-65
2022/08/20 10:31:03;;;;;;;;;;;29.40;99.90;;;;;;5050974;28;20214;-65
2022/08/20 10:33:31;;;;;;;;;;;29.40;99.90;;;;;;5052707;28;20625;-65
2022/08/20 10:36:05;;;;;;;;;;;29.10;99.90;;;;;;5051486;28;20202;-65
2022/08/20 10:38:33;;;;;;;;;;;28.90;99.90;;;;;;5052749;28;20205;-65
2022/08/20 10:41:02;;;;;;;;;;;28.80;99.90;;;;;;5052653;28;20217;-65
2022/08/20 10:43:30;;;;;;;;;;;29.00;99.60;;;;;;5051913;28;20201;-66
2022/08/20 10:45:58;;;;;;;;;;;29.30;99.10;;;;;;5052801;28;20732;-65
2022/08/20 10:48:26;;;;;;;;;;;29.50;98.40;;;;;;5052411;28;20276;-65
2022/08/20 10:50:54;;;;;;;;;;;29.80;98.70;;;;;;5037284;28;20694;-66
2022/08/20 10:53:22;;;;;;;;;;;30.20;97.20;;;;;;5032760;28;20570;-65
2022/08/20 10:55:50;;;;;;;;;;;30.70;97.00;;;;;;5032543;28;20671;-65
2022/08/20 10:58:19;;;;;;;;;;;31.30;96.00;;;;;;5032462;28;20202;-65
2022/08/20 11:00:50;;;;;;;;;;;31.60;94.90;;;;;;5032465;28;20210;-66
2022/08/20 11:03:19;;;;;;;;;;;31.30;94.40;;;;;;5037406;28;20575;-65
2022/08/20 11:05:47;;;;;;;;;;;31.10;94.20;;;;;;5052287;28;20199;-65
2022/08/20 11:08:15;;;;;;;;;;;31.30;93.50;;;;;;5052305;28;20256;-65
2022/08/20 11:11:00;;;;;;;;;;;31.60;93.10;;;;;;5052115;28;20722;-66
2022/08/20 11:13:29;;;;;;;;;;;31.70;92.70;;;;;;5052080;28;20601;-66
2022/08/20 11:15:57;;;;;;;;;;;31.70;92.20;;;;;;5052177;28;20309;-66
2022/08/20 11:18:25;;;;;;;;;;;31.50;92.00;;;;;;5049995;28;20229;-65
2022/08/20 11:20:52;;;;;;;;;;;31.50;92.40;;;;;;5051853;28;20229;-67
2022/08/20 11:23:20;;;;;;;;;;;32.00;92.30;;;;;;5050739;28;20206;-65
2022/08/20 11:25:48;;;;;;;;;;;32.00;91.70;;;;;;5052085;28;20190;-65
2022/08/20 11:28:16;;;;;;;;;;;32.10;91.30;;;;;;5051734;28;20206;-66
2022/08/20 11:31:00;;;;;;;;;;;32.20;90.90;;;;;;5049499;28;20259;-66
2022/08/20 11:33:28;;;;;;;;;;;32.40;91.00;;;;;;5032000;28;20213;-66
2022/08/20 11:35:56;;;;;;;;;;;32.90;90.40;;;;;;5031905;28;20206;-66
2022/08/20 11:38:24;;;;;;;;;;;33.00;89.00;;;;;;5032002;28;20199;-67
2022/08/20 11:40:51;;;;;;;;;;;32.80;89.20;;;;;;5031699;28;20210;-65
2022/08/20 11:43:19;;;;;;;;;;;33.00;88.90;;;;;;5031799;28;20199;-66
2022/08/20 11:45:48;;;;;;;;;;;33.10;87.90;;;;;;5038353;28;20220;-66
2022/08/20 11:48:17;;;;;;;;;;;33.50;88.70;;;;;;5051800;28;20185;-65
2022/08/20 11:50:45;;;;;;;;;;;34.00;87.40;;;;;;5051510;28;20176;-65
2022/08/20 11:53:13;;;;;;;;;;;33.60;85.00;;;;;;5051495;28;20174;-66
2022/08/20 11:55:41;;;;;;;;;;;33.60;85.50;;;;;;5053493;28;20190;-66
2022/08/20 11:58:09;;;;;;;;;;;33.60;85.80;;;;;;5055909;28;20198;-67
2022/08/20 12:00:37;;;;;;;;;;;33.90;85.00;;;;;;5053512;28;20870;-65
2022/08/20 12:03:08;;;;;;;;;;;33.80;83.70;;;;;;5055768;28;20192;-66
2022/08/20 12:05:40;;;;;;;;;;;33.90;83.90;;;;;;5055706;28;20175;-66
2022/08/20 12:08:08;;;;;;;;;;;34.00;83.70;;;;;;5055564;28;20689;-66
2022/08/20 12:10:36;;;;;;;;;;;34.60;82.90;;;;;;5055434;28;20805;-65
2022/08/20 12:13:04;;;;;;;;;;;35.10;80.70;;;;;;5055211;28;20184;-65
2022/08/20 12:15:32;;;;;;;;;;;35.40;78.10;;;;;;5039714;28;20203;-66
2022/08/20 12:18:00;;;;;;;;;;;35.40;78.90;;;;;;5055373;28;20208;-66
2022/08/20 12:20:27;;;;;;;;;;;35.40;79.30;;;;;;5055227;28;20561;-65
2022/08/20 12:22:57;;;;;;;;;;;35.00;79.40;;;;;;5055261;28;20191;-66
2022/08/20 12:25:25;;;;;;;;;;;34.50;80.20;;;;;;5055295;28;20166;-66
2022/08/20 12:27:53;;;;;;;;;;;34.70;80.10;;;;;;5052749;28;20325;-68
2022/08/20 12:30:22;;;;;;;;;;;34.90;80.00;;;;;;5054528;28;20169;-65
2022/08/20 12:32:50;;;;;;;;;;;34.50;79.20;;;;;;5055105;28;20212;-65
2022/08/20 12:35:19;;;;;;;;;;;34.20;79.00;;;;;;5055122;28;20223;-66
2022/08/20 12:37:47;;;;;;;;;;;33.80;78.80;;;;;;5055025;28;20193;-66
2022/08/20 12:40:17;;;;;;;;;;;33.90;79.40;;;;;;5054967;28;20180;-66
2022/08/20 12:42:57;;;;;;;;;;;34.10;79.90;;;;;;5052610;28;20208;-66
2022/08/20 12:45:25;;;;;;;;;;;33.80;79.10;;;;;;5054945;28;20626;-65
2022/08/20 12:47:53;;;;;;;;;;;33.80;79.60;;;;;;5054716;28;20200;-66
2022/08/20 12:50:22;;;;;;;;;;;33.70;79.30;;;;;;5053453;28;20170;-65
2022/08/20 12:52:50;;;;;;;;;;;33.90;77.80;;;;;;5049590;28;20185;-65
2022/08/20 12:55:19;;;;;;;;;;;34.50;78.90;;;;;;5052974;28;20181;-66
2022/08/20 12:57:48;;;;;;;;;;;35.00;77.90;;;;;;5052451;28;20204;-66
2022/08/20 13:00:18;;;;;;;;;;;35.30;77.10;;;;;;5053177;28;20172;-65
2022/08/20 13:02:46;;;;;;;;;;;35.50;76.30;;;;;;5053406;28;20747;-68
2022/08/20 13:05:14;;;;;;;;;;;35.30;75.60;;;;;;5049831;28;20230;-66
2022/08/20 13:07:42;;;;;;;;;;;35.10;77.40;;;;;;5052402;28;20216;-68
2022/08/20 13:10:11;;;;;;;;;;;35.40;76.90;;;;;;5052259;28;20165;-66
2022/08/20 13:12:40;;;;;;;;;;;35.50;76.20;;;;;;5053210;28;20638;-66
2022/08/20 13:15:08;;;;;;;;;;;35.80;73.90;;;;;;5052406;28;20234;-66
2022/08/20 13:17:36;;;;;;;;;;;35.70;72.70;;;;;;5046803;28;20619;-66
2022/08/20 13:20:07;;;;;;;;;;;36.00;72.20;;;;;;5046670;28;20809;-66
2022/08/20 13:22:35;;;;;;;;;;;35.80;73.40;;;;;;5046879;28;20755;-66
2022/08/20 13:25:03;;;;;;;;;;;35.20;72.90;;;;;;5051000;28;20206;-67
2022/08/20 13:27:31;;;;;;;;;;;34.90;72.90;;;;;;5048018;28;20210;-66
2022/08/20 13:30:00;;;;;;;;;;;35.20;72.70;;;;;;5050218;28;20184;-66
2022/08/20 13:32:28;;;;;;;;;;;35.50;71.90;;;;;;5053635;28;20261;-67
2022/08/20 13:34:56;;;;;;;;;;;35.20;72.00;;;;;;5052463;28;20692;-67
2022/08/20 13:37:25;;;;;;;;;;;34.40;71.40;;;;;;5047309;28;20394;-66
2022/08/20 13:39:53;;;;;;;;;;;33.90;71.80;;;;;;5052519;28;20191;-65
2022/08/20 13:42:21;;;;;;;;;;;33.10;71.30;;;;;;5052693;28;20586;-66
2022/08/20 13:44:49;;;;;;;;;;;32.50;72.30;;;;;;5054367;28;20523;-66
2022/08/20 13:47:19;;;;;;;;;;;32.20;72.80;;;;;;5053417;28;20182;-66
2022/08/20 13:49:47;;;;;;;;;;;31.70;71.70;;;;;;5049401;28;20244;-66
2022/08/20 13:52:15;;;;;;;;;;;32.20;70.80;;;;;;5052066;28;20205;-66
2022/08/20 13:54:43;;;;;;;;;;;33.00;71.10;;;;;;5051646;28;20202;-66
2022/08/20 13:57:12;;;;;;;;;;;33.50;70.30;;;;;;5052500;28;20182;-67
2022/08/20 13:59:41;;;;;;;;;;;34.20;68.50;;;;;;5052919;28;20190;-66
2022/08/20 14:02:10;;;;;;;;;;;34.40;67.60;;;;;;5053410;28;20250;-67
2022/08/20 14:04:39;;;;;;;;;;;35.00;67.70;;;;;;5054221;28;20173;-66
2022/08/20 14:07:11;;;;;;;;;;;35.60;65.10;;;;;;5052266;28;20181;-67
2022/08/20 14:09:39;;;;;;;;;;;36.10;64.30;;;;;;5051400;28;20170;-67
2022/08/20 14:12:07;;;;;;;;;;;36.60;63.60;;;;;;5047734;28;20195;-67
2022/08/20 14:14:35;;;;;;;;;;;36.90;62.50;;;;;;5037777;28;20183;-64
2022/08/20 14:17:12;;;;;;;;;;;36.90;61.40;;;;;;5038768;28;20211;-68
2022/08/20 14:19:43;;;;;;;;;;;36.80;61.60;;;;;;5042885;28;20191;-65
2022/08/20 14:22:11;;;;;;;;;;;36.80;59.50;;;;;;5041918;28;20202;-64
2022/08/20 14:24:38;;;;;;;;;;;36.50;58.80;;;;;;5043092;28;20197;-66
2022/08/20 14:27:07;;;;;;;;;;;36.50;58.80;;;;;;5038064;28;20271;-65
2022/08/20 14:29:36;;;;;;;;;;;36.60;58.50;;;;;;5040526;28;20208;-68
2022/08/20 14:32:04;;;;;;;;;;;36.80;59.50;;;;;;5037064;28;20212;-65
2022/08/20 14:34:32;;;;;;;;;;;37.00;57.90;;;;;;5039770;28;20176;-70
2022/08/20 14:37:10;;;;;;;;;;;37.10;58.10;;;;;;5038752;28;20193;-67
2022/08/20 14:39:38;;;;;;;;;;;35.90;64.20;;;;;;5038556;28;20194;-67
2022/08/20 14:42:06;;;;;;;;;;;34.50;66.50;;;;;;5034835;28;20203;-66